Pagina principală
METAR-TAF:

METAR-TAF

Aeroporturi :

Carnarvon, Australia

Latitudine: 24-52-50S, longitudine: 113-40-20E, elevație: 4 m

Observații meteo curente

Raportul a fost făcut în urmă cu 28 de minute, la 15:00 UTC
Vânt 4 kt de la Sud-vest
Temperatură 25°C
Umiditate 89%
Presiune 1010 hPa
Vizibilitate de 10 km sau mai mult

METAR: YCAR 181500Z AUTO 23004KT 9999 // NCD 25/23 Q1010

Ora: 23:28 (15:28 UTC)


TAF: lipsă

Observații și prognoze meteo pentru peste 4.000 de aeroporturi (rapoarte METAR și TAF).

Stațiile disponibile sunt reprezentate pe hartă prin puncte galbene și roșii.

Țineți indicatorul mouse-ului pe punctul dorit pentru a vedea denumirea stației.

Apoi, faceți clic pentru a vedea observațiile și prognozele meteorologice.

Pentru a schimba harta: Pentru mărire, faceți clic pe butoanele verzi cu cruce neagră; pentru micșorare, pe butonul verde cu o liniuță; pentru hărți învecinate, pe săgețile verzi.


METAR-TAF: